Eureka, California
Current Conditions -  °F | °C
As of 5:53 PM on Saturday 20 Dec 2014 (Local Time) from KACV Reporting Station
Light Rain Light Rain  
Wind Chill: 56°   Ceiling: 1200
Heat Index: 56°   Visibility: 2mi
Dew Point: 55°   Wind: 9mph
Humidity: 97%   Direction: 150°SSE
Pressure: 30.09"   Gusts: NA
Location:  40.8°N, 124.15°W
Report Text: KACV 210153Z AUTO 15008KT 2SM -RA BR FEW008 OVC012 13/13 A3009 RMK AO2 SLP196 P0006 T01330128
Loading
Personal Weather Stations






























Interactive Weather Map New forecast layout! Learn more

10-Day Weather Forecast

Advertisements
Track Severe Weather on mobile